Meteo Giornale » Osservazioni meteo Cina » Chengdu
ore: 05:00 - Osservazioni Meteo Chengdu
Lat. 30° 40' N Lon. 104° 1' E Alt. 508 metri s.l.m.
25 °C
Sereno
Temp. 24 Ore
22 °C
35 °C
Nord
7.2 Km/h
Dew point 20 °C
Umidità 73 %
Visibilità 10 Km
Il sole sorge alle ore 06:40
Il sole tramonta alle ore 19:27
| Data e Ora | Cielo e Fenomeni | T °C | DP °C | Um. % | Pres. hPa | Vis. km | Vento km/h | |
|---|---|---|---|---|---|---|---|---|
| Oggi h: 05:00 | Sereno | 25 | 20 | 73 | 1013 | 10 | N 7.2 | |
| Oggi h: 04:00 | Sereno | 24 | 21 | 83 | 1013 | 10 | N 3.6 | |
| Oggi h: 03:00 | Sereno | 24 | 21 | 83 | 1013 | 10 | N 3.6 | |
| Oggi h: 02:00 | Sereno | 25 | 20 | 73 | 1013 | 10 | N 3.6 | |
| Oggi h: 01:00 | Sereno | 27 | 17 | 54 | 1013 | 10 | N 3.6 | |
| Oggi h: 00:00 | Sereno | 27 | 18 | 57 | 1013 | 10 | N 3.6 | |
| Ieri h: 23:00 | Sereno | 29 | 17 | 48 | 1012 | 10 | N 0 | |
| Ieri h: 22:00 | Sereno | 28 | 19 | 58 | 1012 | 10 | N 3.6 | |
| Ieri h: 21:00 | Sereno | 29 | 17 | 48 | 1011 | 10 | N 7.2 | |
| Ieri h: 20:00 | Sereno | 30 | 17 | 45 | 1010 | 10 | N 3.6 | |
| Ieri h: 19:00 | Sereno | 33 | 15 | 33 | 1010 | 10 | N 7.2 | |
| Ieri h: 18:00 | Sereno | 34 | 14 | 30 | 1010 | 10 | N 7.2 | |
| Ieri h: 17:00 | Poco Nuvoloso | 35 | 15 | 30 | 1010 | 10 | N 3.6 | |
| Ieri h: 16:00 | Poco Nuvoloso | 34 | 15 | 32 | 1010 | 10 | N 7.2 | |
| Ieri h: 15:00 | Poco Nuvoloso | 34 | 16 | 34 | 1011 | 10 | N/NE 10.8 | |
| Ieri h: 14:00 | Poco Nuvoloso | 33 | 16 | 36 | 1011 | 10 | N/NE 14.4 | |
| Ieri h: 13:00 | Sereno | 33 | 17 | 38 | 1012 | 10 | N 10.8 | |
| Ieri h: 12:00 | Sereno | 32 | 17 | 40 | 1013 | 10 | E 10.8 | |
| Ieri h: 11:00 | Sereno | 31 | 18 | 45 | 1013 | 10 | N 10.8 | |
| Ieri h: 10:00 | Sereno | 30 | 17 | 45 | 1013 | 10 | N 7.2 | |
| Ieri h: 09:00 | Sereno | 26 | 17 | 57 | 1013 | 10 | N 7.2 | |
| Ieri h: 08:00 | Sereno | 26 | 19 | 65 | 1013 | 10 | N 3.6 | |
| Ieri h: 07:00 | Sereno | 22 | 20 | 88 | 1012 | 10 | N 7.2 | |
| Ieri h: 06:00 | Sereno | 22 | 19 | 83 | 1011 | 10 | N 0 | |



